St Ives Cambridgeshire, United Kingdom
Current Conditions -  °F | °C
As of 7:20 PM on Thursday 18 Dec 2014 (Local Time) from EGSC Reporting Station
Overcast Overcast  
Wind Chill: 13°   Ceiling: 1600
Heat Index: 13°   Visibility: 6mi
Dew Point: 10°   Wind: 20mph
Humidity: 82%   Direction: 220°SW
Pressure: 29.77"   Gusts: NA
Location:  52.34°N, 0.07°W
Report Text: EGSC 181920Z 22017KT 190V260 9999 OVC016 13/10 Q1008
Loading
Personal Weather Stations






























Interactive Weather Map New forecast layout! Learn more

10-Day Weather Forecast

Advertisements
Track Severe Weather on mobile